Time;durP1;ratioP1;P1;durP2;ratioP2;P2;SDS_P1;SDS_P2;PMS_P1;PMS_P2;Temp;Humidity;BMP_temperature;BMP_pressure;BME280_temperature;BME280_humidity;BME280_pressure;Samples;Min_cycle;Max_cycle;Signal;HPM_P1;HPM_P2
2022/05/29 00:00:19;;;;;;;;;;;10.10;99.90;;;;;;4963840;28;19929;-78
2022/05/29 00:02:44;;;;;;;;;;;10.10;99.90;;;;;;4983837;28;19940;-78
2022/05/29 00:05:11;;;;;;;;;;;10.10;99.90;;;;;;4984893;28;19930;-78
2022/05/29 00:07:37;;;;;;;;;;;10.10;99.90;;;;;;4968207;28;19976;-78
2022/05/29 00:10:04;;;;;;;;;;;10.10;99.90;;;;;;4988685;28;20071;-78
2022/05/29 00:12:29;;;;;;;;;;;10.10;99.90;;;;;;4986545;28;19929;-78
2022/05/29 00:14:55;;;;;;;;;;;10.10;99.90;;;;;;4985700;28;19929;-77
2022/05/29 00:17:21;;;;;;;;;;;10.10;99.90;;;;;;4987047;28;19938;-78
2022/05/29 00:19:47;;;;;;;;;;;10.10;99.90;;;;;;4967254;28;20437;-77
2022/05/29 00:22:16;;;;;;;;;;;10.10;99.90;;;;;;5005785;28;20316;-79
2022/05/29 00:24:43;;;;;;;;;;;10.20;99.90;;;;;;5015909;28;19929;-78
2022/05/29 00:27:11;;;;;;;;;;;10.10;99.90;;;;;;5019137;28;20678;-78
2022/05/29 00:29:37;;;;;;;;;;;10.10;99.90;;;;;;4992792;28;19928;-77
2022/05/29 00:32:04;;;;;;;;;;;10.20;99.90;;;;;;4995357;28;19940;-78
2022/05/29 00:34:29;;;;;;;;;;;10.20;99.90;;;;;;4994847;28;19924;-77
2022/05/29 00:36:55;;;;;;;;;;;10.20;99.90;;;;;;4996823;28;19944;-78
2022/05/29 00:39:20;;;;;;;;;;;10.20;99.90;;;;;;4993971;28;20019;-78
2022/05/29 00:41:46;;;;;;;;;;;10.20;99.90;;;;;;4996967;28;19982;-77
2022/05/29 00:44:17;;;;;;;;;;;10.10;99.90;;;;;;5013245;28;19986;-78
2022/05/29 00:47:02;;;;;;;;;;;10.20;99.90;;;;;;4997407;28;20404;-78
2022/05/29 00:49:32;;;;;;;;;;;10.20;99.90;;;;;;5010469;28;20513;-78
2022/05/29 00:52:00;;;;;;;;;;;10.20;99.90;;;;;;4995628;28;19932;-78
2022/05/29 00:54:26;;;;;;;;;;;10.20;99.90;;;;;;5012371;28;19935;-78
2022/05/29 00:56:52;;;;;;;;;;;10.20;99.90;;;;;;4996482;28;19933;-78
2022/05/29 00:59:22;;;;;;;;;;;10.20;99.90;;;;;;5012285;28;19932;-78
2022/05/29 01:01:48;;;;;;;;;;;10.20;99.90;;;;;;4995526;28;19928;-78
2022/05/29 01:04:14;;;;;;;;;;;10.20;99.90;;;;;;5014951;28;19932;-78
2022/05/29 01:06:39;;;;;;;;;;;10.20;99.90;;;;;;5011236;28;19932;-78
2022/05/29 01:09:07;;;;;;;;;;;10.20;99.90;;;;;;4994516;28;19932;-77
2022/05/29 01:11:41;;;;;;;;;;;10.10;99.90;;;;;;5011784;28;19933;-78
2022/05/29 01:14:16;;;;;;;;;;;10.20;99.90;;;;;;5013823;28;19933;-78
2022/05/29 01:16:56;;;;;;;;;;;10.20;99.90;;;;;;5014327;28;19929;-79
2022/05/29 01:19:36;;;;;;;;;;;10.20;99.90;;;;;;4999230;28;20369;-79
2022/05/29 01:22:14;;;;;;;;;;;10.30;99.90;;;;;;4992730;28;19929;-77
2022/05/29 01:24:54;;;;;;;;;;;10.20;99.90;;;;;;4994027;28;20174;-78
2022/05/29 01:27:20;;;;;;;;;;;10.20;99.90;;;;;;4993679;28;20404;-78
2022/05/29 01:29:55;;;;;;;;;;;10.20;99.90;;;;;;4988900;28;19925;-78
2022/05/29 01:32:30;;;;;;;;;;;10.20;99.90;;;;;;4994806;28;19925;-78
2022/05/29 01:34:58;;;;;;;;;;;10.20;99.90;;;;;;4995271;28;19929;-78
2022/05/29 01:37:29;;;;;;;;;;;10.10;99.90;;;;;;4996863;28;19948;-78
2022/05/29 01:39:55;;;;;;;;;;;10.00;99.90;;;;;;4977698;28;19936;-78
2022/05/29 01:42:50;;;;;;;;;;;10.00;99.90;;;;;;4993714;28;19929;-78
2022/05/29 01:45:19;;;;;;;;;;;10.00;99.90;;;;;;4978598;28;20491;-78
2022/05/29 01:47:46;;;;;;;;;;;9.90;99.90;;;;;;4978719;28;20124;-78
2022/05/29 01:50:16;;;;;;;;;;;9.90;99.90;;;;;;4998429;28;19929;-78
2022/05/29 01:52:48;;;;;;;;;;;9.90;99.90;;;;;;4978067;28;19936;-78
2022/05/29 01:55:16;;;;;;;;;;;9.80;99.90;;;;;;4997880;28;20023;-78
2022/05/29 01:57:44;;;;;;;;;;;9.80;99.90;;;;;;4977752;28;19929;-78
2022/05/29 02:00:11;;;;;;;;;;;9.80;99.90;;;;;;4976698;28;20848;-78
2022/05/29 02:02:39;;;;;;;;;;;9.80;99.90;;;;;;4970792;28;19933;-78
2022/05/29 02:05:09;;;;;;;;;;;9.80;99.90;;;;;;4978364;28;19935;-78
2022/05/29 02:07:49;;;;;;;;;;;9.80;99.90;;;;;;4996299;28;19980;-78
2022/05/29 02:10:30;;;;;;;;;;;9.80;99.90;;;;;;4995241;28;19976;-78
2022/05/29 02:13:00;;;;;;;;;;;9.90;99.90;;;;;;4997106;28;19933;-78
2022/05/29 02:15:55;;;;;;;;;;;9.90;99.90;;;;;;4997227;28;19929;-78
2022/05/29 02:18:31;;;;;;;;;;;9.80;99.90;;;;;;4985972;28;19936;-78
2022/05/29 02:21:01;;;;;;;;;;;9.80;99.90;;;;;;4998994;28;20284;-78
2022/05/29 02:23:29;;;;;;;;;;;9.70;99.90;;;;;;4978764;28;19929;-78
2022/05/29 02:25:56;;;;;;;;;;;9.70;99.90;;;;;;4990524;28;19929;-78
2022/05/29 02:28:26;;;;;;;;;;;9.70;99.90;;;;;;4994788;28;20629;-78
2022/05/29 02:31:12;;;;;;;;;;;9.70;99.90;;;;;;4999189;28;19929;-78
2022/05/29 02:33:44;;;;;;;;;;;9.70;99.90;;;;;;4969174;28;20665;-78
2022/05/29 02:36:20;;;;;;;;;;;9.70;99.90;;;;;;4976202;28;19976;-78
2022/05/29 02:38:54;;;;;;;;;;;9.70;99.90;;;;;;4995702;28;19936;-78
2022/05/29 02:41:27;;;;;;;;;;;9.80;99.90;;;;;;4999336;28;20746;-78
2022/05/29 02:43:58;;;;;;;;;;;9.80;99.90;;;;;;4997954;28;19936;-78
2022/05/29 02:46:50;;;;;;;;;;;9.80;99.90;;;;;;4962324;28;20453;-78
2022/05/29 02:49:31;;;;;;;;;;;9.80;99.90;;;;;;4983389;28;19929;-78
2022/05/29 02:52:02;;;;;;;;;;;9.70;99.90;;;;;;4978629;28;19932;-78
2022/05/29 02:54:30;;;;;;;;;;;9.80;99.90;;;;;;4992209;28;19940;-78
2022/05/29 02:56:56;;;;;;;;;;;9.80;99.90;;;;;;4994551;28;20310;-78
2022/05/29 02:59:23;;;;;;;;;;;9.70;99.90;;;;;;4973048;28;19929;-78
2022/05/29 03:02:01;;;;;;;;;;;9.70;99.90;;;;;;4994681;28;21055;-78
2022/05/29 03:04:33;;;;;;;;;;;9.80;99.90;;;;;;4993603;28;19936;-78
2022/05/29 03:07:02;;;;;;;;;;;9.80;99.90;;;;;;5002430;28;20028;-78
2022/05/29 03:09:27;;;;;;;;;;;9.80;99.90;;;;;;4989761;28;19964;-78
2022/05/29 03:11:53;;;;;;;;;;;9.90;99.90;;;;;;4992096;28;19933;-78
2022/05/29 03:14:27;;;;;;;;;;;9.90;99.90;;;;;;5008369;28;19929;-78
2022/05/29 03:17:06;;;;;;;;;;;9.80;99.90;;;;;;4994150;28;20381;-78
2022/05/29 03:19:41;;;;;;;;;;;9.90;99.90;;;;;;4991298;28;19975;-78
2022/05/29 03:22:21;;;;;;;;;;;9.90;99.90;;;;;;5007660;28;19929;-78
2022/05/29 03:24:51;;;;;;;;;;;9.80;99.90;;;;;;5000186;28;20035;-78
2022/05/29 03:27:20;;;;;;;;;;;9.80;99.90;;;;;;4993104;28;20816;-78
2022/05/29 03:29:54;;;;;;;;;;;9.80;99.90;;;;;;5009272;28;19929;-78
2022/05/29 03:32:20;;;;;;;;;;;9.80;99.90;;;;;;5008435;28;19940;-78
2022/05/29 03:34:46;;;;;;;;;;;9.80;99.90;;;;;;4991743;28;19929;-77
2022/05/29 03:37:12;;;;;;;;;;;9.80;99.90;;;;;;5007893;28;19929;-78
2022/05/29 03:39:37;;;;;;;;;;;9.80;99.90;;;;;;5006569;28;19999;-78
2022/05/29 03:42:03;;;;;;;;;;;9.70;99.90;;;;;;5009350;28;19939;-78
2022/05/29 03:44:29;;;;;;;;;;;9.70;99.90;;;;;;4991143;28;19939;-78
2022/05/29 03:46:54;;;;;;;;;;;9.70;99.90;;;;;;4993219;28;20019;-78
2022/05/29 03:49:22;;;;;;;;;;;9.70;99.90;;;;;;4990060;28;20322;-78
2022/05/29 03:51:48;;;;;;;;;;;9.70;99.90;;;;;;4990385;28;19929;-77
2022/05/29 03:54:14;;;;;;;;;;;9.70;99.90;;;;;;4987554;28;19933;-78
2022/05/29 03:56:39;;;;;;;;;;;9.70;99.90;;;;;;4989035;28;20463;-78
2022/05/29 03:59:05;;;;;;;;;;;9.80;99.90;;;;;;5008889;28;19929;-78
2022/05/29 04:01:32;;;;;;;;;;;9.80;99.90;;;;;;4989157;28;19929;-78
2022/05/29 04:03:58;;;;;;;;;;;9.80;99.90;;;;;;4990924;28;20417;-78
2022/05/29 04:06:25;;;;;;;;;;;9.80;99.90;;;;;;4987375;28;20452;-78
2022/05/29 04:14:20;;;;;;;;;;;10.00;99.90;;;;;;5007916;28;19952;-78
2022/05/29 04:16:46;;;;;;;;;;;9.90;99.90;;;;;;5009204;28;19933;-78
2022/05/29 04:19:12;;;;;;;;;;;10.00;99.90;;;;;;5009079;28;20704;-78
2022/05/29 04:21:37;;;;;;;;;;;10.00;99.90;;;;;;5007725;28;20028;-79
2022/05/29 04:24:03;;;;;;;;;;;10.10;99.90;;;;;;5006558;28;19944;-78
2022/05/29 04:26:29;;;;;;;;;;;10.10;99.90;;;;;;5004898;28;19936;-78
2022/05/29 04:28:54;;;;;;;;;;;10.10;99.90;;;;;;5009093;28;19925;-77
2022/05/29 04:31:20;;;;;;;;;;;10.10;99.90;;;;;;5008457;28;19929;-77
2022/05/29 04:33:45;;;;;;;;;;;10.20;99.90;;;;;;5010885;28;20010;-77
2022/05/29 04:36:11;;;;;;;;;;;10.10;99.90;;;;;;5007719;28;19933;-77
2022/05/29 04:38:37;;;;;;;;;;;10.20;99.90;;;;;;5007706;28;19936;-77
2022/05/29 04:41:07;;;;;;;;;;;10.20;99.90;;;;;;5004788;28;19933;-78
2022/05/29 04:43:33;;;;;;;;;;;10.20;99.90;;;;;;5008970;28;20299;-78
2022/05/29 04:45:58;;;;;;;;;;;10.20;99.90;;;;;;5007744;28;19936;-77
2022/05/29 04:48:24;;;;;;;;;;;10.30;99.90;;;;;;5007080;28;20310;-78
2022/05/29 04:50:57;;;;;;;;;;;10.30;99.90;;;;;;5008629;28;19929;-78
2022/05/29 04:53:22;;;;;;;;;;;10.40;99.90;;;;;;5008354;28;19933;-78
2022/05/29 04:55:51;;;;;;;;;;;10.40;99.90;;;;;;4987072;28;20314;-78
2022/05/29 04:58:16;;;;;;;;;;;10.50;99.90;;;;;;5019576;28;19935;-77
2022/05/29 05:00:42;;;;;;;;;;;10.60;99.90;;;;;;5005423;28;19929;-78
2022/05/29 05:03:07;;;;;;;;;;;10.50;99.90;;;;;;5010318;28;20040;-77
2022/05/29 05:05:33;;;;;;;;;;;10.60;99.90;;;;;;5007342;28;19933;-78
2022/05/29 05:07:58;;;;;;;;;;;10.60;99.90;;;;;;5008196;28;19936;-78
2022/05/29 05:10:24;;;;;;;;;;;10.60;99.90;;;;;;5009032;28;19925;-78
2022/05/29 05:12:50;;;;;;;;;;;10.60;99.90;;;;;;5006084;28;19937;-78
2022/05/29 05:15:16;;;;;;;;;;;10.70;99.90;;;;;;5008168;28;19929;-78
2022/05/29 05:17:42;;;;;;;;;;;10.80;99.90;;;;;;5006320;28;19936;-78
2022/05/29 05:20:08;;;;;;;;;;;10.80;99.90;;;;;;5009106;28;19929;-78
2022/05/29 05:22:34;;;;;;;;;;;10.80;99.90;;;;;;5016018;28;19933;-78
2022/05/29 05:25:01;;;;;;;;;;;10.80;99.90;;;;;;5021623;28;19990;-78
2022/05/29 05:27:26;;;;;;;;;;;10.80;99.90;;;;;;4992837;28;19929;-78
2022/05/29 05:29:52;;;;;;;;;;;10.90;99.90;;;;;;5009701;28;19936;-78
2022/05/29 05:32:23;;;;;;;;;;;10.90;99.90;;;;;;5009543;28;19932;-78
2022/05/29 05:34:49;;;;;;;;;;;10.90;99.90;;;;;;5010699;28;19932;-78
2022/05/29 05:37:15;;;;;;;;;;;10.90;99.90;;;;;;5027169;28;19935;-78
2022/05/29 05:39:41;;;;;;;;;;;11.00;99.90;;;;;;5006649;28;20798;-80
2022/05/29 05:42:07;;;;;;;;;;;11.10;99.90;;;;;;5009977;28;19932;-78
2022/05/29 05:44:33;;;;;;;;;;;11.10;99.90;;;;;;5009756;28;19929;-79
2022/05/29 05:46:58;;;;;;;;;;;11.20;99.90;;;;;;5028311;28;20023;-78
2022/05/29 05:49:24;;;;;;;;;;;11.30;99.90;;;;;;5011861;28;19937;-80
2022/05/29 05:51:50;;;;;;;;;;;11.40;99.90;;;;;;5010550;28;20015;-79
2022/05/29 05:54:16;;;;;;;;;;;11.30;99.90;;;;;;5010236;28;20045;-77
2022/05/29 05:56:47;;;;;;;;;;;11.40;99.90;;;;;;5007522;28;19933;-81
2022/05/29 05:59:13;;;;;;;;;;;11.30;99.90;;;;;;5009725;28;20406;-78
2022/05/29 06:01:38;;;;;;;;;;;11.20;99.90;;;;;;5025659;28;19972;-78
2022/05/29 06:04:04;;;;;;;;;;;11.20;99.90;;;;;;5014914;28;19929;-79
2022/05/29 06:06:30;;;;;;;;;;;11.20;99.90;;;;;;5030050;28;20378;-80
2022/05/29 06:08:56;;;;;;;;;;;11.30;99.90;;;;;;5013978;28;20632;-78
2022/05/29 06:11:23;;;;;;;;;;;11.40;99.90;;;;;;5014879;28;19931;-77
2022/05/29 06:13:48;;;;;;;;;;;11.40;99.90;;;;;;4998203;28;19933;-79
2022/05/29 06:16:14;;;;;;;;;;;11.40;99.90;;;;;;5014432;28;19970;-79
2022/05/29 06:18:40;;;;;;;;;;;11.30;99.90;;;;;;5031397;28;20124;-79
2022/05/29 06:21:06;;;;;;;;;;;11.40;99.90;;;;;;5028845;28;20309;-79
2022/05/29 06:23:33;;;;;;;;;;;11.50;99.90;;;;;;5014000;28;19928;-79
2022/05/29 06:26:02;;;;;;;;;;;11.50;99.90;;;;;;5011374;28;19928;-78
2022/05/29 06:28:28;;;;;;;;;;;11.50;99.90;;;;;;5011963;28;19928;-78
2022/05/29 06:30:54;;;;;;;;;;;11.60;99.90;;;;;;5015182;28;19990;-78
2022/05/29 06:33:19;;;;;;;;;;;11.70;99.90;;;;;;5029702;28;19933;-77
2022/05/29 06:35:45;;;;;;;;;;;11.90;99.90;;;;;;5031785;28;20014;-78
2022/05/29 06:38:11;;;;;;;;;;;11.90;99.90;;;;;;5014283;28;19928;-78
2022/05/29 06:40:37;;;;;;;;;;;11.90;99.90;;;;;;5014192;28;19935;-80
2022/05/29 06:43:02;;;;;;;;;;;12.00;99.90;;;;;;5012878;28;20657;-81
2022/05/29 06:45:29;;;;;;;;;;;11.90;99.90;;;;;;5030629;28;19967;-78
2022/05/29 06:47:55;;;;;;;;;;;12.00;99.90;;;;;;5015063;28;19935;-78
2022/05/29 06:50:21;;;;;;;;;;;12.10;99.90;;;;;;5031245;28;19924;-79
2022/05/29 06:52:47;;;;;;;;;;;12.20;99.90;;;;;;5030906;28;20394;-78
2022/05/29 06:55:13;;;;;;;;;;;12.20;99.90;;;;;;5013196;28;19929;-79
2022/05/29 06:57:43;;;;;;;;;;;12.10;99.90;;;;;;5028344;28;19925;-79
2022/05/29 07:08:29;;;;;;;;;;;12.00;99.90;;;;;;5028233;28;19982;-79
2022/05/29 07:10:56;;;;;;;;;;;12.00;99.90;;;;;;5012177;28;19937;-78
2022/05/29 07:13:22;;;;;;;;;;;12.00;99.90;;;;;;5020262;28;19936;-81
2022/05/29 07:15:48;;;;;;;;;;;11.90;99.90;;;;;;5001928;28;20655;-79
2022/05/29 07:18:13;;;;;;;;;;;11.90;99.90;;;;;;5000970;28;20006;-79
2022/05/29 07:20:39;;;;;;;;;;;11.70;99.90;;;;;;5016368;28;19928;-78
2022/05/29 07:23:05;;;;;;;;;;;11.80;99.90;;;;;;5020969;28;19968;-79
2022/05/29 07:25:31;;;;;;;;;;;11.90;99.90;;;;;;5017397;28;19928;-78
2022/05/29 07:27:57;;;;;;;;;;;11.80;99.90;;;;;;4997761;28;20370;-79
2022/05/29 07:30:23;;;;;;;;;;;11.90;99.90;;;;;;4998670;28;19974;-81
2022/05/29 07:32:48;;;;;;;;;;;11.90;99.90;;;;;;5018696;28;20680;-79
2022/05/29 07:35:16;;;;;;;;;;;12.00;99.90;;;;;;5017286;28;20309;-79
2022/05/29 07:37:42;;;;;;;;;;;12.00;99.90;;;;;;5017616;28;19980;-79
2022/05/29 07:40:08;;;;;;;;;;;12.00;99.90;;;;;;5018763;28;22962;-79
2022/05/29 07:45:18;;;;;;;;;;;12.00;99.90;;;;;;5017993;28;20259;-80
2022/05/29 07:47:45;;;;;;;;;;;12.10;99.90;;;;;;5015660;28;20039;-78
2022/05/29 07:50:12;;;;;;;;;;;12.00;99.90;;;;;;5002649;28;19932;-79
2022/05/29 07:52:38;;;;;;;;;;;12.20;99.90;;;;;;5001294;28;19932;-80
2022/05/29 07:55:04;;;;;;;;;;;12.20;99.90;;;;;;5015708;28;19966;-78
2022/05/29 07:57:30;;;;;;;;;;;12.30;99.90;;;;;;5000999;28;19929;-76
2022/05/29 07:59:55;;;;;;;;;;;12.30;99.90;;;;;;5005222;28;19928;-79
2022/05/29 08:02:21;;;;;;;;;;;12.30;99.90;;;;;;5018053;28;19936;-80
2022/05/29 08:04:47;;;;;;;;;;;12.30;99.90;;;;;;4996607;28;19931;-79
2022/05/29 08:07:14;;;;;;;;;;;12.30;99.90;;;;;;4997207;28;20459;-78
2022/05/29 08:09:40;;;;;;;;;;;12.10;99.90;;;;;;5009498;28;19963;-79
2022/05/29 08:12:06;;;;;;;;;;;12.20;99.90;;;;;;5016826;28;20386;-79
2022/05/29 08:14:32;;;;;;;;;;;12.20;99.90;;;;;;5022097;28;19932;-79
2022/05/29 08:16:58;;;;;;;;;;;12.30;99.90;;;;;;5010130;28;19978;-79
2022/05/29 08:19:23;;;;;;;;;;;12.30;99.90;;;;;;5018540;28;19933;-77
2022/05/29 08:21:49;;;;;;;;;;;12.50;99.90;;;;;;5015717;28;19929;-78
2022/05/29 08:32:28;;;;;;;;;;;12.80;99.90;;;;;;5004063;28;19925;-79
2022/05/29 08:34:53;;;;;;;;;;;12.80;99.90;;;;;;4991340;28;20030;-78
2022/05/29 08:37:19;;;;;;;;;;;12.80;99.90;;;;;;5005312;28;19928;-78
2022/05/29 08:39:45;;;;;;;;;;;12.90;99.90;;;;;;5004550;28;19929;-79
2022/05/29 08:42:13;;;;;;;;;;;12.90;99.90;;;;;;5003505;28;20427;-78
2022/05/29 08:44:47;;;;;;;;;;;13.20;99.90;;;;;;5001798;28;19925;-78
2022/05/29 08:47:14;;;;;;;;;;;13.00;99.90;;;;;;5027782;28;19982;-83
2022/05/29 08:49:43;;;;;;;;;;;13.00;99.90;;;;;;5029185;28;19936;-78
2022/05/29 08:52:17;;;;;;;;;;;12.90;99.90;;;;;;5028907;28;20012;-78
2022/05/29 08:54:53;;;;;;;;;;;13.00;99.90;;;;;;5030415;28;20039;-78
2022/05/29 08:57:27;;;;;;;;;;;12.90;99.90;;;;;;5027770;28;20048;-80
2022/05/29 08:59:56;;;;;;;;;;;12.80;99.90;;;;;;5012623;28;20406;-79
2022/05/29 09:02:22;;;;;;;;;;;12.80;99.90;;;;;;5028181;28;20070;-80
2022/05/29 09:04:53;;;;;;;;;;;12.80;99.90;;;;;;5018529;28;20888;-79
2022/05/29 09:07:22;;;;;;;;;;;12.70;99.90;;;;;;5024791;28;19928;-79
2022/05/29 09:09:52;;;;;;;;;;;12.90;99.90;;;;;;5021847;28;19994;-77
2022/05/29 09:12:37;;;;;;;;;;;12.60;99.90;;;;;;5025719;28;19932;-79
2022/05/29 09:15:28;;;;;;;;;;;12.60;99.90;;;;;;5024533;28;20465;-80
2022/05/29 09:17:56;;;;;;;;;;;12.60;99.90;;;;;;5008470;28;19980;-79
2022/05/29 09:20:26;;;;;;;;;;;12.70;99.90;;;;;;5024351;28;20170;-79
2022/05/29 09:22:52;;;;;;;;;;;12.60;99.90;;;;;;5025045;28;19925;-79
2022/05/29 09:25:37;;;;;;;;;;;12.70;99.90;;;;;;5023816;28;19982;-79
2022/05/29 09:28:07;;;;;;;;;;;12.80;99.90;;;;;;5022288;28;19935;-78
2022/05/29 09:30:33;;;;;;;;;;;12.90;99.90;;;;;;5008406;28;20629;-78
2022/05/29 09:33:00;;;;;;;;;;;12.90;99.90;;;;;;5025787;28;19939;-79
2022/05/29 09:35:30;;;;;;;;;;;13.10;99.90;;;;;;5025906;28;19929;-78
2022/05/29 09:37:56;;;;;;;;;;;13.10;99.90;;;;;;5027495;28;19929;-79
2022/05/29 09:40:26;;;;;;;;;;;13.30;99.90;;;;;;5005985;28;20445;-78
2022/05/29 09:42:54;;;;;;;;;;;13.30;99.90;;;;;;5015582;28;20490;-79
2022/05/29 09:45:32;;;;;;;;;;;13.20;99.90;;;;;;5015938;28;19929;-80
2022/05/29 09:50:44;;;;;;;;;;;13.40;99.90;;;;;;5034601;28;19986;-79
2022/05/29 09:53:11;;;;;;;;;;;13.60;99.90;;;;;;5033588;28;19986;-80
2022/05/29 09:55:37;;;;;;;;;;;13.50;99.90;;;;;;5014628;28;20752;-79
2022/05/29 09:58:13;;;;;;;;;;;13.70;99.90;;;;;;5031927;28;19929;-78
2022/05/29 10:00:40;;;;;;;;;;;13.70;99.90;;;;;;5015531;28;19929;-79
2022/05/29 10:03:08;;;;;;;;;;;13.70;99.90;;;;;;5017648;28;20647;-80
2022/05/29 10:05:35;;;;;;;;;;;13.30;99.90;;;;;;5033271;28;20027;-80
2022/05/29 10:08:19;;;;;;;;;;;13.50;99.90;;;;;;4998660;28;19929;-81
2022/05/29 10:10:45;;;;;;;;;;;13.50;99.90;;;;;;5015001;28;19936;-80
2022/05/29 10:13:10;;;;;;;;;;;13.20;99.90;;;;;;5032133;28;19929;-79
2022/05/29 10:15:41;;;;;;;;;;;13.30;99.90;;;;;;5015779;28;19929;-79
2022/05/29 10:18:10;;;;;;;;;;;13.40;99.90;;;;;;5033721;28;19929;-78
2022/05/29 10:20:35;;;;;;;;;;;13.50;99.90;;;;;;5033800;28;19996;-79
2022/05/29 10:23:03;;;;;;;;;;;13.70;99.90;;;;;;5030786;28;20360;-78
2022/05/29 10:25:31;;;;;;;;;;;14.00;99.90;;;;;;5034605;28;19928;-78
2022/05/29 10:28:02;;;;;;;;;;;14.10;99.90;;;;;;5009586;28;19933;-80
2022/05/29 10:30:27;;;;;;;;;;;14.30;99.90;;;;;;5021574;28;19928;-78
2022/05/29 10:33:01;;;;;;;;;;;14.50;99.90;;;;;;4993840;28;19955;-79
2022/05/29 10:35:28;;;;;;;;;;;14.30;99.90;;;;;;5018598;28;20373;-79
2022/05/29 10:37:55;;;;;;;;;;;14.40;99.90;;;;;;5001165;28;20031;-78
2022/05/29 10:40:25;;;;;;;;;;;14.30;99.90;;;;;;5019612;28;19924;-79
2022/05/29 10:42:52;;;;;;;;;;;14.20;99.90;;;;;;5013816;28;19925;-80
2022/05/29 10:45:18;;;;;;;;;;;14.10;99.90;;;;;;4998883;28;19939;-80
2022/05/29 10:47:53;;;;;;;;;;;13.70;99.90;;;;;;5017895;28;20314;-79
2022/05/29 10:50:27;;;;;;;;;;;13.70;99.90;;;;;;5018516;28;19982;-79
2022/05/29 10:52:56;;;;;;;;;;;13.40;99.90;;;;;;5009629;28;19971;-79
2022/05/29 10:55:30;;;;;;;;;;;13.60;99.90;;;;;;5014047;28;20747;-79
2022/05/29 10:57:56;;;;;;;;;;;13.60;99.90;;;;;;4999228;28;20015;-81
2022/05/29 11:00:43;;;;;;;;;;;13.70;99.90;;;;;;5001151;28;20495;-78
2022/05/29 11:03:18;;;;;;;;;;;13.60;99.90;;;;;;5000619;28;19964;-77
2022/05/29 11:06:02;;;;;;;;;;;14.00;99.90;;;;;;4997597;28;20074;-80
2022/05/29 11:08:31;;;;;;;;;;;14.20;99.90;;;;;;5013963;28;19929;-81
2022/05/29 11:11:02;;;;;;;;;;;14.40;99.90;;;;;;5013912;28;19928;-81
2022/05/29 11:13:37;;;;;;;;;;;14.50;99.90;;;;;;4984614;28;20657;-79
2022/05/29 11:16:12;;;;;;;;;;;14.10;99.90;;;;;;5015670;28;19928;-79
2022/05/29 11:18:56;;;;;;;;;;;14.00;99.90;;;;;;5017317;28;19928;-81
2022/05/29 11:21:24;;;;;;;;;;;13.80;99.90;;;;;;5018384;28;20006;-79
2022/05/29 11:24:00;;;;;;;;;;;13.50;99.90;;;;;;5018288;28;20343;-79
2022/05/29 11:26:31;;;;;;;;;;;13.40;99.90;;;;;;5016373;28;20364;-78
2022/05/29 11:29:15;;;;;;;;;;;13.30;99.90;;;;;;5017705;28;19979;-79
2022/05/29 11:31:51;;;;;;;;;;;13.40;99.90;;;;;;5017358;28;19938;-79
2022/05/29 11:34:17;;;;;;;;;;;13.40;99.90;;;;;;5000362;28;19928;-79
2022/05/29 11:36:51;;;;;;;;;;;13.60;99.90;;;;;;5015186;28;20442;-78
2022/05/29 11:39:40;;;;;;;;;;;13.90;99.90;;;;;;4983467;28;19996;-79
2022/05/29 11:42:10;;;;;;;;;;;14.10;99.90;;;;;;5008490;28;19933;-79
2022/05/29 11:44:55;;;;;;;;;;;14.30;99.90;;;;;;5016736;28;19936;-78
2022/05/29 11:53:19;;;;;;;;;;;14.70;99.90;;;;;;5020211;28;19929;-79
2022/05/29 11:55:46;;;;;;;;;;;14.60;99.90;;;;;;5000966;28;20412;-79
2022/05/29 11:58:15;;;;;;;;;;;14.50;99.90;;;;;;5018938;28;19924;-79
2022/05/29 12:00:45;;;;;;;;;;;14.10;99.90;;;;;;5003280;28;19936;-79
2022/05/29 12:03:26;;;;;;;;;;;13.90;99.90;;;;;;4995330;28;19972;-79
2022/05/29 12:05:57;;;;;;;;;;;13.80;99.90;;;;;;4994759;28;20011;-80
2022/05/29 12:08:59;;;;;;;;;;;13.40;99.90;;;;;;4981753;28;20293;-80
2022/05/29 12:11:29;;;;;;;;;;;13.40;99.90;;;;;;4900692;28;20402;-78
2022/05/29 12:14:07;;;;;;;;;;;13.30;99.90;;;;;;5000583;28;19972;-78
2022/05/29 12:16:34;;;;;;;;;;;13.10;99.90;;;;;;5003169;28;19928;-79
2022/05/29 12:19:03;;;;;;;;;;;13.00;99.90;;;;;;5018942;28;19996;-79
2022/05/29 12:21:34;;;;;;;;;;;12.90;99.90;;;;;;5017155;28;20353;-79
2022/05/29 12:24:01;;;;;;;;;;;13.10;99.90;;;;;;5002273;28;19963;-80
2022/05/29 12:26:38;;;;;;;;;;;13.30;99.90;;;;;;5001298;28;20483;-80
2022/05/29 12:29:10;;;;;;;;;;;13.40;99.90;;;;;;5016796;28;19929;-78
2022/05/29 12:31:40;;;;;;;;;;;13.50;99.90;;;;;;5020019;28;19936;-79
2022/05/29 12:34:07;;;;;;;;;;;13.60;99.90;;;;;;5016958;28;20842;-79
2022/05/29 12:36:52;;;;;;;;;;;13.90;99.90;;;;;;5015399;28;19991;-78
2022/05/29 12:39:23;;;;;;;;;;;14.00;99.90;;;;;;5017428;28;19929;-79
2022/05/29 12:42:01;;;;;;;;;;;14.10;99.90;;;;;;5015590;28;20370;-79
2022/05/29 12:44:39;;;;;;;;;;;14.50;99.90;;;;;;5019111;28;19940;-78
2022/05/29 12:47:16;;;;;;;;;;;14.20;99.90;;;;;;5015234;28;20397;-79
2022/05/29 12:49:42;;;;;;;;;;;14.40;99.90;;;;;;5019480;28;19929;-78
2022/05/29 12:52:37;;;;;;;;;;;14.20;99.90;;;;;;5020576;28;19936;-79
2022/05/29 12:55:15;;;;;;;;;;;14.00;99.90;;;;;;4982009;28;19929;-78
2022/05/29 12:57:59;;;;;;;;;;;13.60;99.90;;;;;;4999861;28;20372;-78
2022/05/29 13:00:37;;;;;;;;;;;13.10;99.90;;;;;;5022650;28;19929;-79
2022/05/29 13:03:08;;;;;;;;;;;13.20;99.90;;;;;;5001764;28;19972;-78
2022/05/29 13:05:47;;;;;;;;;;;13.20;99.90;;;;;;5018320;28;20512;-79
2022/05/29 13:08:12;;;;;;;;;;;13.20;99.90;;;;;;5017073;28;19936;-78
2022/05/29 13:10:40;;;;;;;;;;;12.90;99.90;;;;;;5019438;28;19925;-79
2022/05/29 13:13:13;;;;;;;;;;;13.00;99.90;;;;;;5000203;28;19990;-77
2022/05/29 13:15:41;;;;;;;;;;;13.00;99.90;;;;;;5022574;28;19933;-79
2022/05/29 13:18:11;;;;;;;;;;;13.20;99.90;;;;;;5025089;28;20534;-79
2022/05/29 13:20:55;;;;;;;;;;;13.30;99.90;;;;;;5022039;28;19990;-80
2022/05/29 13:23:32;;;;;;;;;;;13.60;99.90;;;;;;5003758;28;19933;-78
2022/05/29 13:25:58;;;;;;;;;;;13.50;99.90;;;;;;5019475;28;20065;-79
2022/05/29 13:28:47;;;;;;;;;;;13.60;99.90;;;;;;4977368;28;20561;-79
2022/05/29 13:31:14;;;;;;;;;;;13.80;99.90;;;;;;5016941;28;19940;-79
2022/05/29 13:33:42;;;;;;;;;;;14.00;99.90;;;;;;5016074;28;19959;-80
2022/05/29 13:36:08;;;;;;;;;;;13.90;99.90;;;;;;5018892;28;19935;-80
2022/05/29 13:38:46;;;;;;;;;;;13.80;99.90;;;;;;5021857;28;20403;-79
2022/05/29 13:41:29;;;;;;;;;;;13.90;99.90;;;;;;5020784;28;19933;-78
2022/05/29 13:43:54;;;;;;;;;;;14.10;99.90;;;;;;5019180;28;19928;-78
2022/05/29 13:46:29;;;;;;;;;;;14.00;99.90;;;;;;4999510;28;19936;-78
2022/05/29 13:49:07;;;;;;;;;;;14.10;99.90;;;;;;5016766;28;19929;-79
2022/05/29 13:51:41;;;;;;;;;;;14.00;99.90;;;;;;5001832;28;19928;-79
2022/05/29 13:54:08;;;;;;;;;;;13.70;99.90;;;;;;4976200;28;19972;-78
2022/05/29 13:57:06;;;;;;;;;;;13.70;99.90;;;;;;5012538;28;20015;-80
2022/05/29 14:05:20;;;;;;;;;;;13.70;99.90;;;;;;5020928;28;19933;-79
2022/05/29 14:08:05;;;;;;;;;;;13.60;99.90;;;;;;5000840;28;19936;-78
2022/05/29 14:10:31;;;;;;;;;;;13.60;99.90;;;;;;5003648;28;20483;-78
2022/05/29 14:13:05;;;;;;;;;;;13.70;99.90;;;;;;5019339;28;19941;-79
2022/05/29 14:15:37;;;;;;;;;;;13.70;99.90;;;;;;5001265;28;19940;-80
2022/05/29 14:18:13;;;;;;;;;;;13.50;99.90;;;;;;5001649;28;19933;-78
2022/05/29 14:20:47;;;;;;;;;;;13.40;99.90;;;;;;5018831;28;19933;-79
2022/05/29 14:23:23;;;;;;;;;;;13.30;99.90;;;;;;5017848;28;19937;-79
2022/05/29 14:26:06;;;;;;;;;;;13.10;99.90;;;;;;4995857;28;20287;-78
2022/05/29 14:28:50;;;;;;;;;;;13.10;99.90;;;;;;5003328;28;19951;-77
2022/05/29 14:31:25;;;;;;;;;;;13.30;99.90;;;;;;4998607;28;20469;-79
2022/05/29 14:34:03;;;;;;;;;;;13.40;99.90;;;;;;5016713;28;19929;-79
2022/05/29 14:36:47;;;;;;;;;;;13.40;99.90;;;;;;5000280;28;19933;-78
2022/05/29 14:39:33;;;;;;;;;;;13.30;99.90;;;;;;4999337;28;19929;-79
2022/05/29 14:42:01;;;;;;;;;;;13.40;99.90;;;;;;5020292;28;19970;-79
2022/05/29 14:44:43;;;;;;;;;;;13.60;99.90;;;;;;5018454;28;20394;-79
2022/05/29 14:47:12;;;;;;;;;;;13.70;99.90;;;;;;4998608;28;20593;-79
2022/05/29 14:49:38;;;;;;;;;;;13.60;99.90;;;;;;5017281;28;19935;-79
2022/05/29 14:52:25;;;;;;;;;;;13.60;99.90;;;;;;5019510;28;19933;-79
2022/05/29 14:54:53;;;;;;;;;;;13.60;99.90;;;;;;5014831;28;20460;-78
2022/05/29 14:57:23;;;;;;;;;;;13.30;99.90;;;;;;5001177;28;19974;-79
2022/05/29 14:59:50;;;;;;;;;;;13.10;99.90;;;;;;5017013;28;19929;-79
2022/05/29 15:02:18;;;;;;;;;;;13.30;99.90;;;;;;5014866;28;20039;-79
2022/05/29 15:04:44;;;;;;;;;;;12.90;99.90;;;;;;4977609;28;20051;-79
2022/05/29 15:10:30;;;;;;;;;;;12.90;99.90;;;;;;5014207;28;19928;-80
2022/05/29 15:13:00;;;;;;;;;;;13.10;99.90;;;;;;4999876;28;20020;-78
2022/05/29 15:15:27;;;;;;;;;;;13.20;99.90;;;;;;5017379;28;20056;-78
2022/05/29 15:18:05;;;;;;;;;;;13.30;99.90;;;;;;5012017;28;19935;-78